Time;durP1;ratioP1;P1;durP2;ratioP2;P2;SDS_P1;SDS_P2;PMS_P1;PMS_P2;Temp;Humidity;BMP_temperature;BMP_pressure;BME280_temperature;BME280_humidity;BME280_pressure;Samples;Min_cycle;Max_cycle;Signal;HPM_P1;HPM_P2
2024/03/17 00:03:54;;;;;;;;;;;7.40;99.90;;;;;;6737755;87;20578;-76
2024/03/17 00:13:55;;;;;;;;;;;7.40;99.90;;;;;;6743481;87;20103;-76
2024/03/17 00:23:55;;;;;;;;;;;7.30;99.90;;;;;;6742496;88;20139;-76
2024/03/17 00:33:56;;;;;;;;;;;7.00;99.90;;;;;;6746632;88;20070;-76
2024/03/17 00:43:56;;;;;;;;;;;6.70;99.90;;;;;;6742996;88;20079;-77
2024/03/17 00:53:58;;;;;;;;;;;6.60;99.90;;;;;;6739794;88;20536;-77
2024/03/17 01:03:58;;;;;;;;;;;6.30;99.90;;;;;;6740714;87;20212;-77
2024/03/17 01:13:58;;;;;;;;;;;6.30;99.90;;;;;;6747421;88;20219;-77
2024/03/17 01:23:59;;;;;;;;;;;6.40;99.90;;;;;;6745758;87;20062;-76
2024/03/17 01:34:00;;;;;;;;;;;6.30;99.90;;;;;;6740280;88;20559;-77
2024/03/17 01:44:00;;;;;;;;;;;6.30;99.90;;;;;;6743061;87;20534;-77
2024/03/17 01:54:01;;;;;;;;;;;6.30;99.90;;;;;;6744584;88;20622;-77
2024/03/17 02:04:01;;;;;;;;;;;6.10;99.90;;;;;;6738845;88;20067;-77
2024/03/17 02:14:02;;;;;;;;;;;6.00;99.90;;;;;;6739503;88;20091;-77
2024/03/17 02:24:02;;;;;;;;;;;5.80;99.90;;;;;;6742882;88;20627;-77
2024/03/17 02:34:03;;;;;;;;;;;5.70;99.90;;;;;;6743502;88;20072;-76
2024/03/17 02:44:04;;;;;;;;;;;5.50;99.90;;;;;;6742022;87;20186;-76
2024/03/17 02:54:05;;;;;;;;;;;5.30;99.90;;;;;;6743098;88;20130;-77
2024/03/17 03:04:06;;;;;;;;;;;5.40;99.90;;;;;;6748381;88;20525;-76
2024/03/17 03:14:06;;;;;;;;;;;5.40;99.90;;;;;;6739693;88;20081;-77
2024/03/17 03:24:07;;;;;;;;;;;5.40;99.90;;;;;;6743197;88;20067;-76
2024/03/17 03:34:08;;;;;;;;;;;5.10;99.90;;;;;;6741908;88;20104;-76
2024/03/17 03:44:10;;;;;;;;;;;5.10;99.90;;;;;;6746286;88;20068;-76
2024/03/17 03:54:12;;;;;;;;;;;4.90;99.90;;;;;;6740867;88;20074;-76
2024/03/17 04:14:15;;;;;;;;;;;4.80;99.90;;;;;;6745800;88;20077;-78
2024/03/17 04:24:16;;;;;;;;;;;4.70;99.90;;;;;;6746838;88;20509;-77
2024/03/17 04:34:17;;;;;;;;;;;4.60;99.90;;;;;;6743071;88;20076;-78
2024/03/17 04:44:17;;;;;;;;;;;4.60;99.90;;;;;;6737763;88;20066;-78
2024/03/17 04:54:18;;;;;;;;;;;4.50;99.90;;;;;;6746270;88;20668;-78
2024/03/17 05:04:18;;;;;;;;;;;4.60;99.90;;;;;;6749039;88;20537;-78
2024/03/17 05:14:22;;;;;;;;;;;4.70;99.90;;;;;;6746650;88;20057;-78
2024/03/17 05:24:22;;;;;;;;;;;4.80;99.90;;;;;;6744360;88;20172;-77
2024/03/17 05:34:24;;;;;;;;;;;4.80;99.90;;;;;;6750487;88;20185;-78
2024/03/17 05:44:24;;;;;;;;;;;4.90;99.90;;;;;;6753452;88;20213;-78
2024/03/17 05:54:25;;;;;;;;;;;4.80;99.90;;;;;;6745885;88;20053;-78
2024/03/17 06:04:26;;;;;;;;;;;4.90;99.90;;;;;;6755019;88;20097;-77
2024/03/17 06:14:26;;;;;;;;;;;4.90;99.90;;;;;;6743974;88;20127;-77
2024/03/17 06:24:28;;;;;;;;;;;4.90;99.90;;;;;;6743907;88;20058;-78
2024/03/17 06:34:28;;;;;;;;;;;4.90;99.90;;;;;;6743382;88;20593;-78
2024/03/17 06:44:30;;;;;;;;;;;5.20;99.90;;;;;;6739386;88;20129;-77
2024/03/17 06:54:33;;;;;;;;;;;5.40;99.90;;;;;;6743797;88;20054;-77
2024/03/17 07:04:35;;;;;;;;;;;5.90;99.90;;;;;;6741493;88;20054;-79
2024/03/17 07:14:36;;;;;;;;;;;6.30;99.90;;;;;;6742687;88;20094;-80
2024/03/17 07:24:37;;;;;;;;;;;6.70;99.90;;;;;;6744534;88;20768;-79
2024/03/17 07:34:37;;;;;;;;;;;7.10;99.90;;;;;;6740624;88;20147;-79
2024/03/17 07:55:19;;;;;;;;;;;8.00;99.90;;;;;;6726209;88;20059;-79
2024/03/17 08:05:19;;;;;;;;;;;8.50;99.90;;;;;;6722819;88;20055;-79
2024/03/17 08:15:20;;;;;;;;;;;8.80;99.90;;;;;;6725323;88;20113;-79
2024/03/17 08:25:20;;;;;;;;;;;9.00;99.90;;;;;;6716781;88;20032;-78
2024/03/17 08:35:21;;;;;;;;;;;9.10;99.90;;;;;;6734475;88;20178;-78
2024/03/17 08:45:21;;;;;;;;;;;10.10;99.90;;;;;;6720168;88;20056;-78
2024/03/17 08:55:22;;;;;;;;;;;9.30;99.90;;;;;;6723349;88;20076;-79
2024/03/17 09:05:22;;;;;;;;;;;9.50;99.90;;;;;;6727063;88;20063;-80
2024/03/17 09:15:23;;;;;;;;;;;10.40;99.90;;;;;;6728198;88;20105;-80
2024/03/17 09:25:23;;;;;;;;;;;10.40;99.90;;;;;;6735988;88;20070;-81
2024/03/17 09:35:25;;;;;;;;;;;10.60;99.90;;;;;;6732862;88;20443;-80
2024/03/17 09:45:26;;;;;;;;;;;11.00;99.90;;;;;;6720236;88;20127;-79
2024/03/17 09:55:26;;;;;;;;;;;11.40;99.90;;;;;;6726030;88;20089;-78
2024/03/17 10:16:29;;;;;;;;;;;12.30;99.90;;;;;;6739326;88;20054;-78
2024/03/17 10:26:29;;;;;;;;;;;11.80;99.90;;;;;;6731555;88;20073;-77
2024/03/17 10:36:30;;;;;;;;;;;12.30;99.90;;;;;;6727472;88;20075;-77
2024/03/17 10:46:30;;;;;;;;;;;12.30;99.90;;;;;;6720219;88;20531;-76
2024/03/17 10:56:31;;;;;;;;;;;12.10;99.90;;;;;;6729267;88;20592;-77
2024/03/17 11:06:31;;;;;;;;;;;13.20;99.90;;;;;;6725039;88;20168;-77
2024/03/17 11:16:32;;;;;;;;;;;13.30;99.90;;;;;;6722109;88;20255;-77
2024/03/17 11:26:33;;;;;;;;;;;13.80;99.90;;;;;;6720633;88;20605;-77
2024/03/17 11:36:38;;;;;;;;;;;13.90;99.90;;;;;;6727151;88;20046;-77
2024/03/17 11:46:38;;;;;;;;;;;14.20;99.90;;;;;;6730278;88;20063;-78
2024/03/17 11:56:39;;;;;;;;;;;14.10;99.90;;;;;;6721249;88;20518;-77
2024/03/17 12:06:39;;;;;;;;;;;13.60;99.90;;;;;;6721011;88;20641;-77
2024/03/17 12:16:46;;;;;;;;;;;14.00;99.90;;;;;;6719118;88;20092;-78
2024/03/17 12:26:47;;;;;;;;;;;14.40;99.90;;;;;;6719529;88;20101;-76
2024/03/17 12:36:49;;;;;;;;;;;14.70;99.90;;;;;;6718717;88;20088;-77
2024/03/17 12:46:54;;;;;;;;;;;14.60;99.90;;;;;;6718173;88;20209;-77
2024/03/17 13:07:27;;;;;;;;;;;14.80;99.90;;;;;;6716474;88;20044;-78
2024/03/17 13:17:29;;;;;;;;;;;14.50;99.90;;;;;;6722880;88;20080;-77
2024/03/17 13:27:29;;;;;;;;;;;14.30;99.90;;;;;;6731837;88;20219;-77
2024/03/17 13:37:30;;;;;;;;;;;14.30;99.90;;;;;;6723240;88;20071;-77
2024/03/17 13:47:30;;;;;;;;;;;14.30;99.90;;;;;;6724902;88;20112;-79
2024/03/17 13:57:30;;;;;;;;;;;14.10;99.90;;;;;;6734089;88;20054;-79
2024/03/17 14:07:31;;;;;;;;;;;14.10;99.90;;;;;;6733525;88;20119;-78
2024/03/17 14:17:32;;;;;;;;;;;14.00;99.90;;;;;;6726815;88;20090;-79
2024/03/17 14:27:34;;;;;;;;;;;14.20;99.90;;;;;;6727534;88;20093;-79
2024/03/17 14:37:34;;;;;;;;;;;14.50;99.90;;;;;;6717769;88;20136;-78
2024/03/17 14:47:35;;;;;;;;;;;14.50;99.90;;;;;;6721797;88;20738;-77
2024/03/17 14:57:37;;;;;;;;;;;14.90;99.90;;;;;;6720197;88;20069;-77
2024/03/17 15:07:37;;;;;;;;;;;15.30;99.90;;;;;;6714112;88;20158;-76
2024/03/17 15:17:38;;;;;;;;;;;15.90;99.90;;;;;;6718050;88;20081;-74
2024/03/17 15:27:42;;;;;;;;;;;15.70;99.90;;;;;;6717129;88;20066;-75
2024/03/17 15:37:42;;;;;;;;;;;15.80;99.90;;;;;;6715776;88;20108;-75
2024/03/17 15:47:43;;;;;;;;;;;15.30;99.90;;;;;;6713851;88;20108;-77
2024/03/17 15:57:43;;;;;;;;;;;14.80;99.90;;;;;;6715553;88;20059;-76
2024/03/17 16:07:44;;;;;;;;;;;14.60;99.90;;;;;;6713310;88;20580;-77
2024/03/17 16:17:45;;;;;;;;;;;14.50;99.90;;;;;;6713002;88;20067;-80
2024/03/17 16:27:55;;;;;;;;;;;14.60;99.90;;;;;;6716706;88;20145;-78
2024/03/17 16:37:58;;;;;;;;;;;14.60;99.90;;;;;;6719382;88;20110;-79
2024/03/17 16:47:59;;;;;;;;;;;14.70;99.90;;;;;;6720822;88;20081;-77
2024/03/17 16:58:12;;;;;;;;;;;14.30;99.90;;;;;;6733113;88;20182;-77
2024/03/17 17:08:13;;;;;;;;;;;14.00;99.90;;;;;;6720700;88;20067;-77
2024/03/17 17:18:34;;;;;;;;;;;13.70;99.90;;;;;;6721935;88;20630;-76
2024/03/17 17:28:34;;;;;;;;;;;13.50;99.90;;;;;;6656795;77;20524;-78
2024/03/17 17:38:36;;;;;;;;;;;13.20;99.90;;;;;;6612204;88;20649;-78
2024/03/17 17:48:38;;;;;;;;;;;13.00;99.90;;;;;;6617774;88;20068;-77
2024/03/17 17:58:38;;;;;;;;;;;12.80;99.90;;;;;;6616144;88;20237;-76
2024/03/17 18:08:40;;;;;;;;;;;12.70;99.90;;;;;;6630771;88;20071;-78
2024/03/17 18:18:40;;;;;;;;;;;12.50;99.90;;;;;;6621947;88;20182;-77
2024/03/17 18:28:42;;;;;;;;;;;12.40;99.90;;;;;;6637929;88;20117;-78
2024/03/17 18:38:42;;;;;;;;;;;12.30;99.90;;;;;;6643102;88;20596;-78
2024/03/17 18:48:43;;;;;;;;;;;12.20;99.90;;;;;;6618835;88;20070;-77
2024/03/17 18:58:43;;;;;;;;;;;12.20;99.90;;;;;;6616463;88;20092;-77
2024/03/17 19:08:45;;;;;;;;;;;12.10;99.90;;;;;;6617189;88;20068;-79
2024/03/17 19:18:46;;;;;;;;;;;11.90;99.90;;;;;;6617716;88;20168;-78
2024/03/17 19:28:47;;;;;;;;;;;11.70;99.90;;;;;;6614884;88;20235;-78
2024/03/17 19:38:50;;;;;;;;;;;11.60;99.90;;;;;;6611562;88;20493;-77
2024/03/17 19:48:51;;;;;;;;;;;11.60;99.90;;;;;;6616761;89;20150;-76
2024/03/17 19:58:53;;;;;;;;;;;11.70;99.90;;;;;;6615126;88;20104;-77
2024/03/17 20:08:55;;;;;;;;;;;11.80;99.90;;;;;;6611483;88;20073;-77
2024/03/17 20:18:56;;;;;;;;;;;11.70;99.90;;;;;;6608277;88;20125;-77
2024/03/17 20:29:02;;;;;;;;;;;11.60;99.90;;;;;;6610682;88;20121;-77
2024/03/17 20:39:02;;;;;;;;;;;11.60;99.90;;;;;;6612340;88;20077;-77
2024/03/17 20:49:03;;;;;;;;;;;11.50;99.90;;;;;;6609196;88;20156;-77
2024/03/17 20:59:03;;;;;;;;;;;11.50;99.90;;;;;;6607763;88;20060;-76
2024/03/17 21:09:05;;;;;;;;;;;11.50;99.90;;;;;;6613819;88;20067;-76
2024/03/17 21:19:05;;;;;;;;;;;11.50;99.90;;;;;;6613899;89;20853;-77
2024/03/17 21:29:07;;;;;;;;;;;11.40;99.90;;;;;;6617134;89;20086;-76
2024/03/17 21:39:08;;;;;;;;;;;11.40;99.90;;;;;;6614959;88;20863;-76
2024/03/17 21:49:08;;;;;;;;;;;11.40;99.90;;;;;;6619140;88;20116;-76
2024/03/17 21:59:09;;;;;;;;;;;11.30;99.90;;;;;;6626176;88;20185;-76
2024/03/17 22:09:10;;;;;;;;;;;11.30;99.90;;;;;;6608549;88;20339;-76
2024/03/17 22:19:10;;;;;;;;;;;11.30;99.90;;;;;;6608100;88;20090;-76
2024/03/17 22:29:14;;;;;;;;;;;11.30;99.90;;;;;;6614678;88;20100;-75
2024/03/17 22:39:15;;;;;;;;;;;11.20;99.90;;;;;;6625419;88;20507;-78
2024/03/17 22:49:16;;;;;;;;;;;11.20;99.90;;;;;;6619675;88;20066;-76
2024/03/17 22:59:16;;;;;;;;;;;11.20;99.90;;;;;;6620873;88;20509;-78
2024/03/17 23:09:17;;;;;;;;;;;11.20;99.90;;;;;;6618867;88;20226;-76
2024/03/17 23:19:17;;;;;;;;;;;11.20;99.90;;;;;;6623924;89;20137;-77
2024/03/17 23:29:18;;;;;;;;;;;11.10;99.90;;;;;;6701143;77;22257;-77
2024/03/17 23:39:19;;;;;;;;;;;11.00;99.90;;;;;;6701583;88;20502;-75
2024/03/17 23:49:19;;;;;;;;;;;11.00;99.90;;;;;;6699916;88;20077;-76
2024/03/17 23:59:20;;;;;;;;;;;10.80;99.90;;;;;;6696818;88;20047;-75
